createdAt,value
2019-04-11T00:01:14.825Z,13.37
2019-04-11T00:03:43.854Z,12.47
2019-04-11T00:06:12.665Z,12.63
2019-04-11T00:08:41.924Z,12.23
2019-04-11T00:11:11.541Z,12.80
2019-04-11T00:13:41.111Z,12.13
2019-04-11T00:16:09.839Z,12.87
2019-04-11T00:18:38.788Z,12.43
2019-04-11T00:21:07.351Z,12.63
2019-04-11T00:23:36.463Z,13.33
2019-04-11T00:26:06.488Z,13.53
2019-04-11T00:28:35.101Z,13.63
2019-04-11T00:31:04.294Z,13.33
2019-04-11T00:33:33.978Z,12.30
2019-04-11T00:36:02.656Z,13.53
2019-04-11T00:38:32.039Z,14.63
2019-04-11T00:41:01.607Z,13.60
2019-04-11T00:43:35.881Z,12.60
2019-04-11T00:46:01.792Z,13.27
2019-04-11T00:48:30.778Z,13.47
2019-04-11T00:50:59.367Z,13.50
2019-04-11T00:53:27.991Z,13.47
2019-04-11T00:55:56.770Z,13.40
2019-04-11T00:58:25.644Z,13.27
2019-04-11T01:00:55.525Z,13.40
2019-04-11T01:03:24.290Z,13.03
2019-04-11T01:05:54.158Z,13.80
2019-04-11T01:08:23.959Z,13.97
2019-04-11T01:10:52.606Z,12.13
2019-04-11T01:13:21.257Z,14.20
2019-04-11T01:16:00.734Z,12.70
2019-04-11T01:18:29.864Z,12.57
2019-04-11T01:20:58.520Z,13.03
2019-04-11T01:23:27.152Z,12.97
2019-04-11T01:25:56.905Z,12.87
2019-04-11T01:28:26.644Z,14.20
2019-04-11T01:31:03.103Z,14.20
2019-04-11T01:33:31.817Z,13.67
2019-04-11T01:36:00.331Z,12.67
2019-04-11T01:38:30.480Z,13.17
2019-04-11T01:41:00.237Z,13.83
2019-04-11T01:43:29.634Z,13.70
2019-04-11T01:46:00.087Z,13.73
2019-04-11T01:48:31.220Z,13.37
2019-04-11T01:51:01.110Z,13.90
2019-04-11T01:53:30.963Z,13.17
2019-04-11T01:56:00.910Z,14.20
2019-04-11T01:58:30.869Z,14.77
2019-04-11T02:01:08.292Z,14.03
2019-04-11T02:03:41.449Z,14.53
2019-04-11T02:06:09.992Z,14.37
2019-04-11T02:08:39.582Z,13.60
2019-04-11T02:11:09.613Z,13.30
2019-04-11T02:13:39.505Z,14.07
2019-04-11T02:16:08.526Z,15.67
2019-04-11T02:18:37.613Z,13.63
2019-04-11T02:21:06.312Z,13.73
2019-04-11T02:23:48.824Z,15.03
2019-04-11T02:26:22.029Z,14.20
2019-04-11T02:28:50.597Z,14.97
2019-04-11T02:31:20.452Z,14.60
2019-04-11T02:33:51.061Z,14.83
2019-04-11T02:36:20.713Z,14.00
2019-04-11T02:38:54.147Z,14.10
2019-04-11T02:41:21.110Z,14.30
2019-04-11T02:43:51.003Z,15.77
2019-04-11T02:46:31.971Z,14.87
2019-04-11T02:48:52.028Z,14.63
2019-04-11T02:51:20.633Z,14.23
2019-04-11T02:53:49.654Z,14.97
2019-04-11T02:56:19.376Z,15.77
2019-04-11T02:58:48.354Z,15.03
2019-04-11T03:01:17.887Z,14.20
2019-04-11T03:03:47.464Z,14.43
2019-04-11T03:06:17.575Z,15.60
2019-04-11T03:08:48.827Z,14.37
2019-04-11T03:11:19.103Z,14.63
2019-04-11T03:13:52.570Z,14.67
2019-04-11T03:16:34.569Z,14.60
2019-04-11T03:19:09.036Z,15.37
2019-04-11T03:21:23.960Z,15.10
2019-04-11T03:23:52.157Z,15.30
2019-04-11T03:26:21.512Z,15.10
2019-04-11T03:28:54.013Z,14.40
2019-04-11T03:32:05.007Z,15.27
2019-04-11T03:37:06.752Z,13.73
2019-04-11T03:39:11.653Z,14.83
2019-04-11T03:41:38.733Z,13.63
2019-04-11T03:44:01.909Z,14.97
2019-04-11T03:46:37.703Z,14.37
2019-04-11T03:49:03.787Z,15.30
2019-04-11T03:51:23.371Z,14.43
2019-04-11T03:53:53.397Z,15.00
2019-04-11T03:56:24.242Z,15.47
2019-04-11T03:58:53.920Z,15.00
2019-04-11T04:01:25.198Z,15.33
2019-04-11T04:03:55.535Z,14.97
2019-04-11T04:06:25.575Z,14.13
2019-04-11T04:08:55.585Z,15.07
2019-04-11T04:11:27.510Z,15.97
2019-04-11T04:14:17.179Z,15.20
2019-04-11T04:16:56.481Z,15.30
2019-04-11T04:19:43.565Z,15.87
2019-04-11T04:22:17.913Z,16.13
2019-04-11T04:24:49.111Z,14.93
2019-04-11T04:27:17.511Z,15.30
2019-04-11T04:29:49.617Z,14.17
2019-04-11T04:32:16.525Z,15.53
2019-04-11T04:34:46.426Z,14.40
2019-04-11T04:37:17.973Z,14.40
2019-04-11T04:39:47.972Z,15.20
2019-04-11T04:42:25.094Z,14.67
2019-04-11T04:44:48.997Z,14.83
2019-04-11T04:47:25.028Z,15.03
2019-04-11T04:49:48.687Z,15.50
2019-04-11T04:52:18.877Z,15.47
2019-04-11T04:54:48.534Z,17.13
2019-04-11T04:57:18.269Z,14.57
2019-04-11T04:59:48.791Z,16.23
2019-04-11T05:02:17.988Z,15.87
2019-04-11T05:04:47.957Z,15.93
2019-04-11T05:07:17.236Z,16.37
2019-04-11T05:09:46.084Z,15.37
2019-04-11T05:12:16.107Z,16.63
2019-04-11T05:14:45.539Z,15.33
2019-04-11T05:17:14.975Z,17.53
2019-04-11T05:19:44.566Z,16.87
2019-04-11T05:22:13.232Z,16.23
2019-04-11T05:24:41.792Z,15.83
2019-04-11T05:27:15.483Z,18.00
2019-04-11T05:29:44.325Z,16.37
2019-04-11T05:32:13.404Z,16.23
2019-04-11T05:34:43.530Z,16.07
2019-04-11T05:37:40.369Z,15.77
2019-04-11T05:40:21.118Z,15.17
2019-04-11T05:42:39.990Z,16.87
2019-04-11T05:45:15.885Z,17.00
2019-04-11T05:47:40.995Z,15.43
2019-04-11T05:50:24.246Z,16.53
2019-04-11T05:52:52.950Z,16.50
2019-04-11T05:55:21.670Z,16.00
2019-04-11T05:57:50.296Z,17.43
2019-04-11T06:00:23.511Z,17.33
2019-04-11T06:02:53.723Z,17.27
2019-04-11T06:05:27.163Z,16.23
2019-04-11T06:07:57.699Z,17.30
2019-04-11T06:10:45.051Z,16.53
2019-04-11T06:13:22.651Z,16.53
2019-04-11T06:16:00.660Z,16.50
2019-04-11T06:18:45.799Z,15.73
2019-04-11T06:21:19.948Z,17.23
2019-04-11T06:23:49.898Z,16.70
2019-04-11T06:26:23.007Z,16.87
2019-04-11T06:28:55.495Z,16.73
2019-04-11T06:31:34.375Z,16.20
2019-04-11T06:34:07.482Z,16.27
2019-04-11T06:36:41.247Z,17.00
2019-04-11T06:39:12.720Z,17.87
2019-04-11T06:41:46.528Z,15.90
2019-04-11T06:44:19.560Z,16.63
2019-04-11T06:47:02.650Z,15.90
2019-04-11T06:49:38.859Z,15.77
2019-04-11T06:52:09.065Z,16.90
2019-04-11T06:54:48.092Z,16.30
2019-04-11T06:57:21.629Z,18.60
2019-04-11T06:59:52.504Z,16.43
2019-04-11T07:02:24.406Z,16.97
2019-04-11T07:04:56.316Z,17.10
2019-04-11T07:07:28.779Z,17.47
2019-04-11T07:09:59.670Z,17.63
2019-04-11T07:12:30.771Z,18.50
2019-04-11T07:15:14.331Z,18.77
2019-04-11T07:18:01.059Z,17.37
2019-04-11T07:20:43.856Z,16.47
2019-04-11T07:23:33.343Z,17.43
2019-04-11T07:26:22.950Z,18.50
2019-04-11T07:28:56.498Z,18.13
2019-04-11T07:31:46.184Z,17.47
2019-04-11T07:34:32.656Z,17.50
2019-04-11T07:37:16.866Z,17.53
2019-04-11T07:39:47.310Z,17.73
2019-04-11T07:42:23.855Z,17.97
2019-04-11T07:44:55.386Z,18.20
2019-04-11T07:47:29.483Z,17.27
2019-04-11T07:50:00.061Z,17.50
2019-04-11T07:52:32.658Z,18.23
2019-04-11T07:55:00.182Z,18.63
2019-04-11T07:57:45.466Z,18.63
2019-04-11T08:00:36.727Z,17.83
2019-04-11T08:03:14.436Z,18.60
2019-04-11T08:05:50.389Z,19.23
2019-04-11T08:08:21.426Z,21.33
2019-04-11T08:11:09.975Z,21.00
2019-04-11T08:13:56.324Z,21.60
2019-04-11T08:16:44.984Z,19.80
2019-04-11T08:19:31.372Z,19.53
2019-04-11T08:22:08.457Z,17.07
2019-04-11T08:24:38.695Z,18.97
2019-04-11T08:27:09.500Z,19.87
2019-04-11T08:29:38.303Z,18.53
2019-04-11T08:32:09.517Z,18.83
2019-04-11T08:34:43.673Z,19.60
2019-04-11T08:37:13.999Z,19.37
2019-04-11T08:39:42.627Z,18.10
2019-04-11T08:42:29.633Z,17.60
2019-04-11T08:44:58.871Z,17.33
2019-04-11T08:47:41.633Z,19.20
2019-04-11T08:49:59.373Z,19.03
2019-04-11T08:52:38.696Z,20.27
2019-04-11T08:55:10.283Z,18.03
2019-04-11T08:57:41.584Z,18.97
2019-04-11T09:00:19.971Z,20.73
2019-04-11T09:02:51.317Z,18.67
2019-04-11T09:05:24.995Z,18.83
2019-04-11T09:07:56.147Z,18.03
2019-04-11T09:10:46.262Z,20.93
2019-04-11T09:13:17.373Z,19.10
2019-04-11T09:16:03.506Z,19.47
2019-04-11T09:18:34.385Z,18.67
2019-04-11T09:21:07.822Z,18.27
2019-04-11T09:23:37.867Z,19.73
2019-04-11T09:26:18.070Z,18.83
2019-04-11T09:28:46.776Z,19.37
2019-04-11T09:31:27.478Z,19.67
2019-04-11T09:33:57.831Z,20.70
2019-04-11T09:36:43.141Z,18.37
2019-04-11T09:39:28.909Z,19.80
2019-04-11T09:41:59.484Z,20.43
2019-04-11T09:44:30.718Z,18.73
2019-04-11T09:47:17.836Z,19.17
2019-04-11T09:49:48.031Z,19.90
2019-04-11T09:52:31.070Z,19.83
2019-04-11T09:55:10.748Z,19.43
2019-04-11T09:57:41.919Z,19.20
2019-04-11T10:00:16.413Z,20.03
2019-04-11T10:02:58.630Z,20.47
2019-04-11T10:05:29.966Z,19.77
2019-04-11T10:08:16.918Z,20.40
2019-04-11T10:10:47.133Z,19.27
2019-04-11T10:13:18.500Z,20.83
2019-04-11T10:16:05.184Z,20.37
2019-04-11T10:18:40.337Z,20.83
2019-04-11T10:21:10.029Z,21.10
2019-04-11T10:23:56.994Z,20.40
2019-04-11T10:26:27.793Z,19.20
2019-04-11T10:29:06.538Z,20.57
2019-04-11T10:31:36.793Z,18.90
2019-04-11T10:34:09.792Z,20.20
2019-04-11T10:36:40.090Z,20.33
2019-04-11T10:39:18.184Z,19.63
2019-04-11T10:41:50.720Z,20.17
2019-04-11T10:44:23.656Z,20.57
2019-04-11T10:46:53.866Z,20.50
2019-04-11T10:49:40.646Z,21.23
2019-04-11T10:52:20.360Z,19.53
2019-04-11T10:55:07.241Z,22.17
2019-04-11T10:57:52.515Z,20.40
2019-04-11T11:00:37.843Z,20.47
2019-04-11T11:03:20.324Z,21.27
2019-04-11T11:05:51.391Z,21.67
2019-04-11T11:08:24.339Z,22.00
2019-04-11T11:10:55.540Z,21.30
2019-04-11T11:13:29.843Z,23.37
2019-04-11T11:15:58.526Z,21.80
2019-04-11T11:19:15.782Z,22.27
2019-04-11T11:21:15.719Z,23.67
2019-04-11T11:24:05.399Z,20.63
2019-04-11T11:26:33.453Z,22.30
2019-04-11T11:29:20.641Z,21.03
2019-04-11T11:31:54.600Z,22.97
2019-04-11T11:34:25.371Z,21.63
2019-04-11T11:36:56.726Z,22.43
2019-04-11T11:39:33.488Z,20.63
2019-04-11T11:42:22.222Z,20.40
2019-04-11T11:44:59.258Z,20.87
2019-04-11T11:47:45.967Z,20.50
2019-04-11T11:50:19.661Z,20.63
2019-04-11T11:52:54.119Z,22.30
2019-04-11T11:55:43.203Z,21.77
2019-04-11T11:58:30.015Z,24.13
2019-04-11T12:01:04.526Z,22.47
2019-04-11T12:03:48.867Z,23.23
2019-04-11T12:06:22.225Z,23.90
2019-04-11T12:08:51.519Z,21.23
2019-04-11T12:11:21.877Z,23.47
2019-04-11T12:14:09.647Z,21.57
2019-04-11T12:16:39.957Z,22.40
2019-04-11T12:19:18.580Z,23.00
2019-04-11T12:21:48.965Z,22.17
2019-04-11T12:24:36.492Z,22.43
2019-04-11T12:27:10.211Z,24.07
2019-04-11T12:29:50.126Z,25.07
2019-04-11T12:32:22.628Z,22.57
2019-04-11T12:35:08.250Z,20.83
2019-04-11T12:37:45.429Z,21.33
2019-04-11T12:40:32.143Z,22.40
2019-04-11T12:43:02.366Z,22.40
2019-04-11T12:45:38.741Z,24.07
2019-04-11T12:48:07.323Z,24.70
2019-04-11T12:50:53.746Z,24.10
2019-04-11T12:53:22.452Z,21.97
2019-04-11T12:55:52.609Z,25.00
2019-04-11T23:51:41.043Z,11.40
2019-04-11T23:54:09.603Z,10.53
2019-04-11T23:56:38.191Z,10.40
2019-04-11T23:59:06.667Z,9.80
